sensor_id;sensor_type;location;lat;lon;timestamp;P1;durP1;ratioP1;P2;durP2;ratioP2
6517;SDS011;3292;48.944;9.240;2022-08-04T00:02:14;2.97;;;2.42;;
6517;SDS011;3292;48.944;9.240;2022-08-04T00:04:51;4.45;;;2.25;;
6517;SDS011;3292;48.944;9.240;2022-08-04T00:07:21;3.28;;;2.40;;
6517;SDS011;3292;48.944;9.240;2022-08-04T00:09:58;2.40;;;2.20;;
6517;SDS011;3292;48.944;9.240;2022-08-04T00:12:27;2.67;;;2.47;;
6517;SDS011;3292;48.944;9.240;2022-08-04T00:14:59;2.67;;;2.47;;
6517;SDS011;3292;48.944;9.240;2022-08-04T00:17:28;3.00;;;2.23;;
6517;SDS011;3292;48.944;9.240;2022-08-04T00:19:58;2.53;;;2.33;;
6517;SDS011;3292;48.944;9.240;2022-08-04T00:22:26;2.93;;;2.50;;
6517;SDS011;3292;48.944;9.240;2022-08-04T00:24:55;2.83;;;2.40;;
6517;SDS011;3292;48.944;9.240;2022-08-04T00:27:23;3.40;;;2.40;;
6517;SDS011;3292;48.944;9.240;2022-08-04T00:29:50;4.77;;;2.53;;
6517;SDS011;3292;48.944;9.240;2022-08-04T00:32:19;2.53;;;2.30;;
6517;SDS011;3292;48.944;9.240;2022-08-04T00:34:47;3.20;;;2.30;;
6517;SDS011;3292;48.944;9.240;2022-08-04T00:37:13;3.60;;;2.20;;
6517;SDS011;3292;48.944;9.240;2022-08-04T00:39:41;4.53;;;2.07;;
6517;SDS011;3292;48.944;9.240;2022-08-04T00:42:13;3.37;;;2.10;;
6517;SDS011;3292;48.944;9.240;2022-08-04T00:44:59;2.40;;;2.10;;
6517;SDS011;3292;48.944;9.240;2022-08-04T00:47:40;2.47;;;2.27;;
6517;SDS011;3292;48.944;9.240;2022-08-04T00:50:18;4.87;;;2.60;;
6517;SDS011;3292;48.944;9.240;2022-08-04T00:53:05;2.60;;;2.13;;
6517;SDS011;3292;48.944;9.240;2022-08-04T00:55:42;4.00;;;2.40;;
6517;SDS011;3292;48.944;9.240;2022-08-04T00:58:21;2.53;;;2.20;;
6517;SDS011;3292;48.944;9.240;2022-08-04T01:00:57;2.50;;;2.30;;
6517;SDS011;3292;48.944;9.240;2022-08-04T01:03:32;2.53;;;2.33;;
6517;SDS011;3292;48.944;9.240;2022-08-04T01:06:17;2.40;;;2.20;;
6517;SDS011;3292;48.944;9.240;2022-08-04T01:08:58;3.87;;;2.60;;
6517;SDS011;3292;48.944;9.240;2022-08-04T01:11:44;2.90;;;2.70;;
6517;SDS011;3292;48.944;9.240;2022-08-04T01:14:23;2.90;;;2.50;;
6517;SDS011;3292;48.944;9.240;2022-08-04T01:17:23;2.53;;;2.33;;
6517;SDS011;3292;48.944;9.240;2022-08-04T01:19:59;5.47;;;2.50;;
6517;SDS011;3292;48.944;9.240;2022-08-04T01:22:48;3.20;;;2.40;;
6517;SDS011;3292;48.944;9.240;2022-08-04T01:25:52;3.73;;;2.80;;
6517;SDS011;3292;48.944;9.240;2022-08-04T01:28:35;2.70;;;2.50;;
6517;SDS011;3292;48.944;9.240;2022-08-04T01:31:14;2.80;;;2.60;;
6517;SDS011;3292;48.944;9.240;2022-08-04T01:33:46;2.97;;;2.37;;
6517;SDS011;3292;48.944;9.240;2022-08-04T01:36:15;3.30;;;2.57;;
6517;SDS011;3292;48.944;9.240;2022-08-04T01:38:45;3.53;;;2.47;;
6517;SDS011;3292;48.944;9.240;2022-08-04T01:41:13;3.40;;;2.53;;
6517;SDS011;3292;48.944;9.240;2022-08-04T01:43:43;4.10;;;2.43;;
6517;SDS011;3292;48.944;9.240;2022-08-04T01:46:11;2.87;;;2.67;;
6517;SDS011;3292;48.944;9.240;2022-08-04T01:48:41;3.33;;;2.70;;
6517;SDS011;3292;48.944;9.240;2022-08-04T01:51:11;2.47;;;2.27;;
6517;SDS011;3292;48.944;9.240;2022-08-04T01:53:38;3.03;;;2.73;;
6517;SDS011;3292;48.944;9.240;2022-08-04T01:56:08;2.60;;;2.40;;
6517;SDS011;3292;48.944;9.240;2022-08-04T01:58:37;4.10;;;2.60;;
6517;SDS011;3292;48.944;9.240;2022-08-04T02:01:06;3.07;;;2.47;;
6517;SDS011;3292;48.944;9.240;2022-08-04T02:03:35;2.57;;;2.37;;
6517;SDS011;3292;48.944;9.240;2022-08-04T02:06:07;2.67;;;2.23;;
6517;SDS011;3292;48.944;9.240;2022-08-04T02:08:54;2.27;;;2.03;;
6517;SDS011;3292;48.944;9.240;2022-08-04T02:11:28;2.60;;;2.30;;
6517;SDS011;3292;48.944;9.240;2022-08-04T02:13:57;3.57;;;2.27;;
6517;SDS011;3292;48.944;9.240;2022-08-04T02:16:31;4.67;;;2.70;;
6517;SDS011;3292;48.944;9.240;2022-08-04T02:19:11;3.13;;;2.80;;
6517;SDS011;3292;48.944;9.240;2022-08-04T02:21:50;4.00;;;2.80;;
6517;SDS011;3292;48.944;9.240;2022-08-04T02:24:23;4.83;;;2.67;;
6517;SDS011;3292;48.944;9.240;2022-08-04T02:26:53;2.67;;;2.43;;
6517;SDS011;3292;48.944;9.240;2022-08-04T02:29:24;2.93;;;2.13;;
6517;SDS011;3292;48.944;9.240;2022-08-04T02:32:00;3.97;;;2.23;;
6517;SDS011;3292;48.944;9.240;2022-08-04T02:34:32;2.33;;;2.13;;
6517;SDS011;3292;48.944;9.240;2022-08-04T02:37:06;3.40;;;2.40;;
6517;SDS011;3292;48.944;9.240;2022-08-04T02:39:35;2.93;;;2.50;;
6517;SDS011;3292;48.944;9.240;2022-08-04T02:42:03;3.17;;;2.40;;
6517;SDS011;3292;48.944;9.240;2022-08-04T02:44:30;2.70;;;2.50;;
6517;SDS011;3292;48.944;9.240;2022-08-04T02:46:59;2.63;;;2.43;;
6517;SDS011;3292;48.944;9.240;2022-08-04T02:49:26;3.67;;;2.50;;
6517;SDS011;3292;48.944;9.240;2022-08-04T02:51:57;2.70;;;2.50;;
6517;SDS011;3292;48.944;9.240;2022-08-04T02:54:26;5.07;;;2.43;;
6517;SDS011;3292;48.944;9.240;2022-08-04T02:56:56;2.97;;;2.27;;
6517;SDS011;3292;48.944;9.240;2022-08-04T02:59:26;2.57;;;2.33;;
6517;SDS011;3292;48.944;9.240;2022-08-04T03:01:55;2.43;;;2.23;;
6517;SDS011;3292;48.944;9.240;2022-08-04T03:04:25;3.67;;;2.70;;
6517;SDS011;3292;48.944;9.240;2022-08-04T03:10:22;2.93;;;2.50;;
6517;SDS011;3292;48.944;9.240;2022-08-04T03:13:16;3.37;;;2.43;;
6517;SDS011;3292;48.944;9.240;2022-08-04T03:16:16;2.47;;;2.27;;
6517;SDS011;3292;48.944;9.240;2022-08-04T03:19:02;3.17;;;2.33;;
6517;SDS011;3292;48.944;9.240;2022-08-04T03:28:14;2.53;;;2.33;;
6517;SDS011;3292;48.944;9.240;2022-08-04T03:31:10;3.17;;;2.50;;
6517;SDS011;3292;48.944;9.240;2022-08-04T03:34:02;3.37;;;2.57;;
6517;SDS011;3292;48.944;9.240;2022-08-04T03:42:43;2.70;;;2.50;;
6517;SDS011;3292;48.944;9.240;2022-08-04T03:48:49;3.50;;;2.60;;
6517;SDS011;3292;48.944;9.240;2022-08-04T03:51:33;3.00;;;2.50;;
6517;SDS011;3292;48.944;9.240;2022-08-04T03:57:29;3.77;;;2.73;;
6517;SDS011;3292;48.944;9.240;2022-08-04T04:00:26;4.03;;;2.60;;
6517;SDS011;3292;48.944;9.240;2022-08-04T04:03:20;3.03;;;2.50;;
6517;SDS011;3292;48.944;9.240;2022-08-04T04:06:10;4.13;;;2.60;;
6517;SDS011;3292;48.944;9.240;2022-08-04T04:08:58;2.90;;;2.70;;
6517;SDS011;3292;48.944;9.240;2022-08-04T04:11:50;3.13;;;2.60;;
6517;SDS011;3292;48.944;9.240;2022-08-04T04:14:43;2.87;;;2.67;;
6517;SDS011;3292;48.944;9.240;2022-08-04T04:17:20;3.57;;;3.00;;
6517;SDS011;3292;48.944;9.240;2022-08-04T04:20:26;3.60;;;2.93;;
6517;SDS011;3292;48.944;9.240;2022-08-04T04:23:24;4.07;;;2.87;;
6517;SDS011;3292;48.944;9.240;2022-08-04T04:26:02;3.20;;;2.90;;
6517;SDS011;3292;48.944;9.240;2022-08-04T04:28:49;3.73;;;2.90;;
6517;SDS011;3292;48.944;9.240;2022-08-04T04:31:32;3.50;;;2.80;;
6517;SDS011;3292;48.944;9.240;2022-08-04T04:34:15;2.97;;;2.67;;
6517;SDS011;3292;48.944;9.240;2022-08-04T04:36:56;4.20;;;2.53;;
6517;SDS011;3292;48.944;9.240;2022-08-04T04:39:40;4.30;;;2.40;;
6517;SDS011;3292;48.944;9.240;2022-08-04T04:42:22;2.93;;;2.63;;
6517;SDS011;3292;48.944;9.240;2022-08-04T04:45:02;2.80;;;2.60;;
6517;SDS011;3292;48.944;9.240;2022-08-04T04:47:41;3.63;;;2.63;;
6517;SDS011;3292;48.944;9.240;2022-08-04T04:50:19;4.67;;;2.50;;
6517;SDS011;3292;48.944;9.240;2022-08-04T04:52:55;4.13;;;2.33;;
6517;SDS011;3292;48.944;9.240;2022-08-04T04:55:30;2.50;;;2.30;;
6517;SDS011;3292;48.944;9.240;2022-08-04T04:58:04;2.80;;;2.60;;
6517;SDS011;3292;48.944;9.240;2022-08-04T05:00:33;4.87;;;2.50;;
6517;SDS011;3292;48.944;9.240;2022-08-04T05:03:22;6.10;;;2.57;;
6517;SDS011;3292;48.944;9.240;2022-08-04T05:06:17;7.40;;;2.80;;
6517;SDS011;3292;48.944;9.240;2022-08-04T05:11:59;2.70;;;2.30;;
6517;SDS011;3292;48.944;9.240;2022-08-04T05:14:43;8.47;;;2.30;;
6517;SDS011;3292;48.944;9.240;2022-08-04T05:17:14;6.87;;;2.70;;
6517;SDS011;3292;48.944;9.240;2022-08-04T05:19:50;5.17;;;2.70;;
6517;SDS011;3292;48.944;9.240;2022-08-04T05:22:27;4.47;;;2.50;;
6517;SDS011;3292;48.944;9.240;2022-08-04T05:25:03;5.30;;;2.73;;
6517;SDS011;3292;48.944;9.240;2022-08-04T05:27:37;3.73;;;2.73;;
6517;SDS011;3292;48.944;9.240;2022-08-04T05:30:06;4.60;;;2.63;;
6517;SDS011;3292;48.944;9.240;2022-08-04T05:32:37;4.30;;;2.50;;
6517;SDS011;3292;48.944;9.240;2022-08-04T05:35:11;5.53;;;2.53;;
6517;SDS011;3292;48.944;9.240;2022-08-04T05:37:45;3.77;;;2.70;;
6517;SDS011;3292;48.944;9.240;2022-08-04T05:40:18;6.10;;;2.67;;
6517;SDS011;3292;48.944;9.240;2022-08-04T05:42:47;6.27;;;2.60;;
6517;SDS011;3292;48.944;9.240;2022-08-04T05:45:15;8.50;;;2.87;;
6517;SDS011;3292;48.944;9.240;2022-08-04T05:47:43;5.63;;;2.70;;
6517;SDS011;3292;48.944;9.240;2022-08-04T05:50:11;7.47;;;2.80;;
6517;SDS011;3292;48.944;9.240;2022-08-04T05:52:39;5.95;;;2.60;;
6517;SDS011;3292;48.944;9.240;2022-08-04T05:55:07;5.05;;;2.63;;
6517;SDS011;3292;48.944;9.240;2022-08-04T05:57:39;7.30;;;2.35;;
6517;SDS011;3292;48.944;9.240;2022-08-04T06:00:06;4.32;;;2.40;;
6517;SDS011;3292;48.944;9.240;2022-08-04T06:02:34;2.90;;;2.05;;
6517;SDS011;3292;48.944;9.240;2022-08-04T06:05:03;4.35;;;2.30;;
6517;SDS011;3292;48.944;9.240;2022-08-04T06:07:31;3.38;;;2.10;;
6517;SDS011;3292;48.944;9.240;2022-08-04T06:09:59;2.97;;;2.22;;
6517;SDS011;3292;48.944;9.240;2022-08-04T06:12:27;2.67;;;2.08;;
6517;SDS011;3292;48.944;9.240;2022-08-04T06:15:05;3.58;;;2.22;;
6517;SDS011;3292;48.944;9.240;2022-08-04T06:17:36;3.10;;;2.40;;
6517;SDS011;3292;48.944;9.240;2022-08-04T06:20:06;3.08;;;2.30;;
6517;SDS011;3292;48.944;9.240;2022-08-04T06:22:38;3.35;;;2.47;;
6517;SDS011;3292;48.944;9.240;2022-08-04T06:25:08;2.55;;;1.90;;
6517;SDS011;3292;48.944;9.240;2022-08-04T06:27:37;2.80;;;2.50;;
6517;SDS011;3292;48.944;9.240;2022-08-04T06:30:07;3.67;;;2.65;;
6517;SDS011;3292;48.944;9.240;2022-08-04T06:32:38;2.72;;;2.33;;
6517;SDS011;3292;48.944;9.240;2022-08-04T06:35:13;4.65;;;2.25;;
6517;SDS011;3292;48.944;9.240;2022-08-04T06:37:41;5.07;;;2.47;;
6517;SDS011;3292;48.944;9.240;2022-08-04T06:40:10;4.20;;;2.40;;
6517;SDS011;3292;48.944;9.240;2022-08-04T06:42:38;3.35;;;2.40;;
6517;SDS011;3292;48.944;9.240;2022-08-04T06:45:08;2.53;;;2.20;;
6517;SDS011;3292;48.944;9.240;2022-08-04T06:47:36;2.30;;;2.10;;
6517;SDS011;3292;48.944;9.240;2022-08-04T06:50:05;2.60;;;1.88;;
6517;SDS011;3292;48.944;9.240;2022-08-04T06:52:33;3.70;;;1.90;;
6517;SDS011;3292;48.944;9.240;2022-08-04T06:55:00;2.85;;;2.40;;
6517;SDS011;3292;48.944;9.240;2022-08-04T06:57:27;4.75;;;2.33;;
6517;SDS011;3292;48.944;9.240;2022-08-04T06:59:59;4.60;;;2.30;;
6517;SDS011;3292;48.944;9.240;2022-08-04T07:02:30;2.20;;;2.00;;
6517;SDS011;3292;48.944;9.240;2022-08-04T07:05:02;4.18;;;1.90;;
6517;SDS011;3292;48.944;9.240;2022-08-04T07:07:31;3.08;;;2.10;;
6517;SDS011;3292;48.944;9.240;2022-08-04T07:09:59;3.47;;;2.20;;
6517;SDS011;3292;48.944;9.240;2022-08-04T07:12:27;3.03;;;1.60;;
6517;SDS011;3292;48.944;9.240;2022-08-04T07:14:54;4.28;;;2.08;;
6517;SDS011;3292;48.944;9.240;2022-08-04T07:17:22;3.85;;;2.05;;
6517;SDS011;3292;48.944;9.240;2022-08-04T07:19:52;2.35;;;2.10;;
6517;SDS011;3292;48.944;9.240;2022-08-04T07:22:19;3.38;;;1.98;;
6517;SDS011;3292;48.944;9.240;2022-08-04T07:24:46;3.08;;;2.30;;
6517;SDS011;3292;48.944;9.240;2022-08-04T07:27:13;4.32;;;1.98;;
6517;SDS011;3292;48.944;9.240;2022-08-04T07:29:42;3.67;;;2.10;;
6517;SDS011;3292;48.944;9.240;2022-08-04T07:32:10;2.65;;;1.98;;
6517;SDS011;3292;48.944;9.240;2022-08-04T07:34:37;5.05;;;2.03;;
6517;SDS011;3292;48.944;9.240;2022-08-04T07:37:07;3.97;;;2.00;;
6517;SDS011;3292;48.944;9.240;2022-08-04T07:39:34;2.58;;;1.90;;
6517;SDS011;3292;48.944;9.240;2022-08-04T07:42:02;2.97;;;1.88;;
6517;SDS011;3292;48.944;9.240;2022-08-04T07:44:29;3.10;;;1.90;;
6517;SDS011;3292;48.944;9.240;2022-08-04T07:46:57;6.20;;;2.20;;
6517;SDS011;3292;48.944;9.240;2022-08-04T07:49:24;3.92;;;2.35;;
6517;SDS011;3292;48.944;9.240;2022-08-04T07:51:51;5.35;;;2.10;;
6517;SDS011;3292;48.944;9.240;2022-08-04T07:54:20;3.33;;;2.13;;
6517;SDS011;3292;48.944;9.240;2022-08-04T07:56:50;5.00;;;2.30;;
6517;SDS011;3292;48.944;9.240;2022-08-04T07:59:17;3.63;;;2.22;;
6517;SDS011;3292;48.944;9.240;2022-08-04T08:01:44;3.85;;;1.80;;
6517;SDS011;3292;48.944;9.240;2022-08-04T08:04:12;4.10;;;2.00;;
6517;SDS011;3292;48.944;9.240;2022-08-04T08:06:40;4.68;;;2.17;;
6517;SDS011;3292;48.944;9.240;2022-08-04T08:09:08;4.88;;;2.10;;
6517;SDS011;3292;48.944;9.240;2022-08-04T08:11:37;2.85;;;2.00;;
6517;SDS011;3292;48.944;9.240;2022-08-04T08:14:05;3.50;;;2.30;;
6517;SDS011;3292;48.944;9.240;2022-08-04T08:16:33;6.53;;;2.00;;
6517;SDS011;3292;48.944;9.240;2022-08-04T08:19:00;4.20;;;2.00;;
6517;SDS011;3292;48.944;9.240;2022-08-04T08:21:28;1.98;;;1.88;;
6517;SDS011;3292;48.944;9.240;2022-08-04T08:23:55;5.10;;;2.30;;
6517;SDS011;3292;48.944;9.240;2022-08-04T08:26:22;3.80;;;1.85;;
6517;SDS011;3292;48.944;9.240;2022-08-04T08:28:50;2.90;;;1.85;;
6517;SDS011;3292;48.944;9.240;2022-08-04T08:31:18;4.20;;;1.92;;
6517;SDS011;3292;48.944;9.240;2022-08-04T08:33:45;2.20;;;1.98;;
6517;SDS011;3292;48.944;9.240;2022-08-04T08:36:16;5.43;;;2.20;;
6517;SDS011;3292;48.944;9.240;2022-08-04T08:38:48;2.38;;;1.80;;
6517;SDS011;3292;48.944;9.240;2022-08-04T08:41:25;1.98;;;1.77;;
6517;SDS011;3292;48.944;9.240;2022-08-04T08:44:23;2.33;;;1.75;;
6517;SDS011;3292;48.944;9.240;2022-08-04T08:47:18;1.95;;;1.70;;
6517;SDS011;3292;48.944;9.240;2022-08-04T08:50:09;4.50;;;2.25;;
6517;SDS011;3292;48.944;9.240;2022-08-04T08:52:57;2.20;;;2.00;;
6517;SDS011;3292;48.944;9.240;2022-08-04T08:55:44;3.28;;;1.90;;
6517;SDS011;3292;48.944;9.240;2022-08-04T08:58:34;3.55;;;2.13;;
6517;SDS011;3292;48.944;9.240;2022-08-04T09:01:15;3.22;;;1.77;;
6517;SDS011;3292;48.944;9.240;2022-08-04T09:04:00;2.53;;;1.75;;
6517;SDS011;3292;48.944;9.240;2022-08-04T09:06:53;4.75;;;2.10;;
6517;SDS011;3292;48.944;9.240;2022-08-04T09:09:46;3.47;;;2.13;;
6517;SDS011;3292;48.944;9.240;2022-08-04T09:12:24;1.95;;;1.80;;
6517;SDS011;3292;48.944;9.240;2022-08-04T09:14:59;1.80;;;1.70;;
6517;SDS011;3292;48.944;9.240;2022-08-04T09:17:32;5.70;;;1.83;;
6517;SDS011;3292;48.944;9.240;2022-08-04T09:20:06;3.05;;;1.80;;
6517;SDS011;3292;48.944;9.240;2022-08-04T09:22:43;3.10;;;2.00;;
6517;SDS011;3292;48.944;9.240;2022-08-04T09:25:17;3.05;;;1.90;;
6517;SDS011;3292;48.944;9.240;2022-08-04T09:27:50;5.38;;;2.13;;
6517;SDS011;3292;48.944;9.240;2022-08-04T09:30:19;4.72;;;2.05;;
6517;SDS011;3292;48.944;9.240;2022-08-04T09:32:57;3.03;;;1.88;;
6517;SDS011;3292;48.944;9.240;2022-08-04T09:35:34;3.30;;;1.70;;
6517;SDS011;3292;48.944;9.240;2022-08-04T09:38:09;2.78;;;1.95;;
6517;SDS011;3292;48.944;9.240;2022-08-04T09:40:47;2.58;;;2.00;;
6517;SDS011;3292;48.944;9.240;2022-08-04T09:43:28;2.33;;;1.90;;
6517;SDS011;3292;48.944;9.240;2022-08-04T09:46:04;4.25;;;2.10;;
6517;SDS011;3292;48.944;9.240;2022-08-04T09:48:39;2.38;;;1.80;;
6517;SDS011;3292;48.944;9.240;2022-08-04T09:51:15;2.72;;;1.90;;
6517;SDS011;3292;48.944;9.240;2022-08-04T09:53:52;4.72;;;1.98;;
6517;SDS011;3292;48.944;9.240;2022-08-04T09:56:25;5.00;;;2.30;;
6517;SDS011;3292;48.944;9.240;2022-08-04T09:59:00;3.05;;;2.00;;
6517;SDS011;3292;48.944;9.240;2022-08-04T10:01:36;5.13;;;2.10;;
6517;SDS011;3292;48.944;9.240;2022-08-04T10:04:06;1.83;;;1.73;;
6517;SDS011;3292;48.944;9.240;2022-08-04T10:06:59;3.00;;;2.20;;
6517;SDS011;3292;48.944;9.240;2022-08-04T10:09:46;2.88;;;2.08;;
6517;SDS011;3292;48.944;9.240;2022-08-04T10:12:36;2.25;;;2.00;;
6517;SDS011;3292;48.944;9.240;2022-08-04T10:15:13;2.22;;;1.90;;
6517;SDS011;3292;48.944;9.240;2022-08-04T10:17:50;4.95;;;1.95;;
6517;SDS011;3292;48.944;9.240;2022-08-04T10:20:45;2.42;;;1.90;;
6517;SDS011;3292;48.944;9.240;2022-08-04T10:23:26;2.25;;;2.05;;
6517;SDS011;3292;48.944;9.240;2022-08-04T10:26:05;2.38;;;2.00;;
6517;SDS011;3292;48.944;9.240;2022-08-04T10:28:42;5.32;;;2.08;;
6517;SDS011;3292;48.944;9.240;2022-08-04T10:31:21;2.60;;;2.03;;
6517;SDS011;3292;48.944;9.240;2022-08-04T10:33:53;3.65;;;1.98;;
6517;SDS011;3292;48.944;9.240;2022-08-04T10:36:29;2.42;;;2.10;;
6517;SDS011;3292;48.944;9.240;2022-08-04T10:39:09;2.33;;;2.00;;
6517;SDS011;3292;48.944;9.240;2022-08-04T10:41:41;3.33;;;2.00;;
6517;SDS011;3292;48.944;9.240;2022-08-04T10:44:17;3.22;;;1.98;;
6517;SDS011;3292;48.944;9.240;2022-08-04T10:46:54;2.13;;;1.88;;
6517;SDS011;3292;48.944;9.240;2022-08-04T10:49:28;2.22;;;2.03;;
6517;SDS011;3292;48.944;9.240;2022-08-04T10:52:04;2.88;;;2.03;;
6517;SDS011;3292;48.944;9.240;2022-08-04T10:54:37;2.33;;;2.13;;
6517;SDS011;3292;48.944;9.240;2022-08-04T10:57:11;1.92;;;1.77;;
6517;SDS011;3292;48.944;9.240;2022-08-04T10:59:44;2.30;;;1.80;;
6517;SDS011;3292;48.944;9.240;2022-08-04T11:02:24;2.10;;;1.77;;
6517;SDS011;3292;48.944;9.240;2022-08-04T11:05:02;2.83;;;1.90;;
6517;SDS011;3292;48.944;9.240;2022-08-04T11:07:44;2.70;;;2.10;;
6517;SDS011;3292;48.944;9.240;2022-08-04T11:10:14;1.80;;;1.70;;
6517;SDS011;3292;48.944;9.240;2022-08-04T11:12:45;2.70;;;1.65;;
6517;SDS011;3292;48.944;9.240;2022-08-04T11:15:17;2.08;;;1.88;;
6517;SDS011;3292;48.944;9.240;2022-08-04T11:17:49;3.80;;;1.70;;
6517;SDS011;3292;48.944;9.240;2022-08-04T11:20:22;2.38;;;1.90;;
6517;SDS011;3292;48.944;9.240;2022-08-04T11:22:57;1.83;;;1.73;;
6517;SDS011;3292;48.944;9.240;2022-08-04T11:25:32;2.65;;;2.00;;
6517;SDS011;3292;48.944;9.240;2022-08-04T11:28:08;2.30;;;1.80;;
6517;SDS011;3292;48.944;9.240;2022-08-04T11:30:39;3.75;;;1.80;;
6517;SDS011;3292;48.944;9.240;2022-08-04T11:33:15;2.50;;;1.80;;
6517;SDS011;3292;48.944;9.240;2022-08-04T11:35:51;2.88;;;1.95;;
6517;SDS011;3292;48.944;9.240;2022-08-04T11:38:26;2.35;;;1.88;;
6517;SDS011;3292;48.944;9.240;2022-08-04T11:40:59;3.78;;;1.80;;
6517;SDS011;3292;48.944;9.240;2022-08-04T11:43:34;1.70;;;1.60;;
6517;SDS011;3292;48.944;9.240;2022-08-04T11:46:07;3.35;;;1.83;;
6517;SDS011;3292;48.944;9.240;2022-08-04T11:48:40;2.05;;;1.85;;
6517;SDS011;3292;48.944;9.240;2022-08-04T11:51:10;2.35;;;1.85;;
6517;SDS011;3292;48.944;9.240;2022-08-04T11:53:39;2.75;;;1.92;;
6517;SDS011;3292;48.944;9.240;2022-08-04T11:56:09;2.88;;;1.90;;
6517;SDS011;3292;48.944;9.240;2022-08-04T11:58:39;3.67;;;1.75;;
6517;SDS011;3292;48.944;9.240;2022-08-04T12:01:08;2.42;;;2.08;;
6517;SDS011;3292;48.944;9.240;2022-08-04T12:03:45;3.75;;;2.13;;
6517;SDS011;3292;48.944;9.240;2022-08-04T12:06:21;3.03;;;1.67;;
6517;SDS011;3292;48.944;9.240;2022-08-04T12:08:59;3.88;;;1.80;;
6517;SDS011;3292;48.944;9.240;2022-08-04T12:14:25;2.10;;;1.92;;
6517;SDS011;3292;48.944;9.240;2022-08-04T12:16:59;2.10;;;2.00;;
6517;SDS011;3292;48.944;9.240;2022-08-04T12:19:28;4.95;;;2.10;;
6517;SDS011;3292;48.944;9.240;2022-08-04T12:22:00;2.45;;;2.20;;
6517;SDS011;3292;48.944;9.240;2022-08-04T12:24:33;2.75;;;1.98;;
6517;SDS011;3292;48.944;9.240;2022-08-04T12:27:05;2.05;;;1.85;;
6517;SDS011;3292;48.944;9.240;2022-08-04T12:29:38;3.75;;;2.20;;
6517;SDS011;3292;48.944;9.240;2022-08-04T12:32:12;1.92;;;1.83;;
6517;SDS011;3292;48.944;9.240;2022-08-04T12:34:48;2.28;;;2.08;;
6517;SDS011;3292;48.944;9.240;2022-08-04T12:37:25;2.50;;;2.10;;
6517;SDS011;3292;48.944;9.240;2022-08-04T12:40:00;7.55;;;2.20;;
6517;SDS011;3292;48.944;9.240;2022-08-04T12:42:32;2.70;;;2.05;;
6517;SDS011;3292;48.944;9.240;2022-08-04T12:45:07;4.22;;;2.00;;
6517;SDS011;3292;48.944;9.240;2022-08-04T12:47:35;2.78;;;1.90;;
6517;SDS011;3292;48.944;9.240;2022-08-04T12:50:04;3.42;;;1.98;;
6517;SDS011;3292;48.944;9.240;2022-08-04T12:52:39;3.65;;;1.90;;
6517;SDS011;3292;48.944;9.240;2022-08-04T12:55:09;2.63;;;2.00;;
6517;SDS011;3292;48.944;9.240;2022-08-04T12:57:38;2.28;;;1.90;;
6517;SDS011;3292;48.944;9.240;2022-08-04T13:00:07;3.58;;;2.05;;
6517;SDS011;3292;48.944;9.240;2022-08-04T13:02:36;2.45;;;2.00;;
6517;SDS011;3292;48.944;9.240;2022-08-04T13:05:08;2.22;;;2.03;;
6517;SDS011;3292;48.944;9.240;2022-08-04T13:07:37;2.83;;;2.20;;
6517;SDS011;3292;48.944;9.240;2022-08-04T13:10:10;2.20;;;2.00;;
6517;SDS011;3292;48.944;9.240;2022-08-04T13:12:39;2.17;;;2.00;;
6517;SDS011;3292;48.944;9.240;2022-08-04T13:15:10;2.20;;;2.00;;
6517;SDS011;3292;48.944;9.240;2022-08-04T13:17:41;2.70;;;1.92;;
6517;SDS011;3292;48.944;9.240;2022-08-04T13:20:14;2.40;;;2.20;;
6517;SDS011;3292;48.944;9.240;2022-08-04T13:22:42;2.58;;;2.25;;
6517;SDS011;3292;48.944;9.240;2022-08-04T13:25:11;3.42;;;2.30;;
6517;SDS011;3292;48.944;9.240;2022-08-04T13:27:38;2.83;;;2.20;;
6517;SDS011;3292;48.944;9.240;2022-08-04T13:30:11;1.98;;;1.80;;
6517;SDS011;3292;48.944;9.240;2022-08-04T13:32:38;2.47;;;2.10;;
6517;SDS011;3292;48.944;9.240;2022-08-04T13:35:06;4.45;;;2.28;;
6517;SDS011;3292;48.944;9.240;2022-08-04T13:37:35;2.60;;;2.00;;
6517;SDS011;3292;48.944;9.240;2022-08-04T13:40:05;2.88;;;2.13;;
6517;SDS011;3292;48.944;9.240;2022-08-04T13:42:35;2.58;;;1.90;;
6517;SDS011;3292;48.944;9.240;2022-08-04T13:45:04;3.22;;;2.00;;
6517;SDS011;3292;48.944;9.240;2022-08-04T13:47:35;2.95;;;2.20;;
6517;SDS011;3292;48.944;9.240;2022-08-04T13:50:06;2.40;;;2.20;;
6517;SDS011;3292;48.944;9.240;2022-08-04T13:52:36;3.13;;;1.92;;
6517;SDS011;3292;48.944;9.240;2022-08-04T13:55:04;2.20;;;2.00;;
6517;SDS011;3292;48.944;9.240;2022-08-04T13:57:32;3.63;;;2.13;;
6517;SDS011;3292;48.944;9.240;2022-08-04T14:00:10;2.33;;;2.13;;
6517;SDS011;3292;48.944;9.240;2022-08-04T14:02:42;3.65;;;2.10;;
6517;SDS011;3292;48.944;9.240;2022-08-04T14:05:13;3.92;;;2.13;;
6517;SDS011;3292;48.944;9.240;2022-08-04T14:07:45;2.30;;;2.10;;
6517;SDS011;3292;48.944;9.240;2022-08-04T14:10:14;3.22;;;2.33;;
6517;SDS011;3292;48.944;9.240;2022-08-04T14:12:44;2.40;;;2.20;;
6517;SDS011;3292;48.944;9.240;2022-08-04T14:15:31;2.88;;;2.15;;
6517;SDS011;3292;48.944;9.240;2022-08-04T14:18:14;4.75;;;2.25;;
6517;SDS011;3292;48.944;9.240;2022-08-04T14:21:01;2.85;;;2.20;;
6517;SDS011;3292;48.944;9.240;2022-08-04T14:23:39;7.15;;;2.50;;
6517;SDS011;3292;48.944;9.240;2022-08-04T14:26:18;4.45;;;2.17;;
6517;SDS011;3292;48.944;9.240;2022-08-04T14:28:48;2.63;;;2.10;;
6517;SDS011;3292;48.944;9.240;2022-08-04T14:31:16;2.47;;;2.28;;
6517;SDS011;3292;48.944;9.240;2022-08-04T14:33:45;2.30;;;2.10;;
6517;SDS011;3292;48.944;9.240;2022-08-04T14:36:13;6.40;;;2.05;;
6517;SDS011;3292;48.944;9.240;2022-08-04T14:38:51;2.85;;;2.10;;
6517;SDS011;3292;48.944;9.240;2022-08-04T14:41:21;2.60;;;2.25;;
6517;SDS011;3292;48.944;9.240;2022-08-04T14:43:51;5.50;;;2.47;;
6517;SDS011;3292;48.944;9.240;2022-08-04T14:46:23;2.55;;;2.10;;
6517;SDS011;3292;48.944;9.240;2022-08-04T14:49:06;4.07;;;2.30;;
6517;SDS011;3292;48.944;9.240;2022-08-04T14:51:36;4.28;;;2.30;;
6517;SDS011;3292;48.944;9.240;2022-08-04T14:54:06;3.30;;;2.30;;
6517;SDS011;3292;48.944;9.240;2022-08-04T14:56:34;2.83;;;2.20;;
6517;SDS011;3292;48.944;9.240;2022-08-04T14:59:04;2.28;;;2.08;;
6517;SDS011;3292;48.944;9.240;2022-08-04T15:01:33;3.88;;;2.22;;
6517;SDS011;3292;48.944;9.240;2022-08-04T15:04:01;2.60;;;2.17;;
6517;SDS011;3292;48.944;9.240;2022-08-04T15:06:30;4.13;;;2.30;;
6517;SDS011;3292;48.944;9.240;2022-08-04T15:08:58;3.50;;;2.10;;
6517;SDS011;3292;48.944;9.240;2022-08-04T15:11:27;2.70;;;2.20;;
6517;SDS011;3292;48.944;9.240;2022-08-04T15:13:54;3.15;;;2.10;;
6517;SDS011;3292;48.944;9.240;2022-08-04T15:16:24;3.50;;;2.10;;
6517;SDS011;3292;48.944;9.240;2022-08-04T15:18:56;2.35;;;2.15;;
6517;SDS011;3292;48.944;9.240;2022-08-04T15:21:24;2.83;;;2.03;;
6517;SDS011;3292;48.944;9.240;2022-08-04T15:23:53;3.40;;;1.98;;
6517;SDS011;3292;48.944;9.240;2022-08-04T15:26:22;2.92;;;1.98;;
6517;SDS011;3292;48.944;9.240;2022-08-04T15:28:55;3.00;;;2.30;;
6517;SDS011;3292;48.944;9.240;2022-08-04T15:31:33;3.28;;;2.17;;
6517;SDS011;3292;48.944;9.240;2022-08-04T15:34:05;4.63;;;2.55;;
6517;SDS011;3292;48.944;9.240;2022-08-04T15:36:41;3.00;;;1.90;;
6517;SDS011;3292;48.944;9.240;2022-08-04T15:39:16;2.40;;;2.20;;
6517;SDS011;3292;48.944;9.240;2022-08-04T15:41:52;2.38;;;2.17;;
6517;SDS011;3292;48.944;9.240;2022-08-04T15:44:29;2.92;;;2.22;;
6517;SDS011;3292;48.944;9.240;2022-08-04T15:47:13;4.00;;;2.10;;
6517;SDS011;3292;48.944;9.240;2022-08-04T15:49:42;2.78;;;2.10;;
6517;SDS011;3292;48.944;9.240;2022-08-04T15:52:11;3.63;;;2.00;;
6517;SDS011;3292;48.944;9.240;2022-08-04T15:54:41;2.22;;;2.00;;
6517;SDS011;3292;48.944;9.240;2022-08-04T15:57:09;3.97;;;2.25;;
6517;SDS011;3292;48.944;9.240;2022-08-04T16:02:29;4.68;;;2.30;;
6517;SDS011;3292;48.944;9.240;2022-08-04T16:08:00;2.40;;;2.20;;
6517;SDS011;3292;48.944;9.240;2022-08-04T16:10:34;5.45;;;2.20;;
6517;SDS011;3292;48.944;9.240;2022-08-04T16:13:03;2.80;;;2.28;;
6517;SDS011;3292;48.944;9.240;2022-08-04T16:15:37;2.20;;;2.05;;
6517;SDS011;3292;48.944;9.240;2022-08-04T16:18:06;2.97;;;2.17;;
6517;SDS011;3292;48.944;9.240;2022-08-04T16:20:34;3.58;;;1.83;;
6517;SDS011;3292;48.944;9.240;2022-08-04T16:23:05;2.22;;;2.03;;
6517;SDS011;3292;48.944;9.240;2022-08-04T16:25:45;3.10;;;2.25;;
6517;SDS011;3292;48.944;9.240;2022-08-04T16:31:02;3.67;;;2.40;;
6517;SDS011;3292;48.944;9.240;2022-08-04T16:33:31;4.72;;;2.20;;
6517;SDS011;3292;48.944;9.240;2022-08-04T16:35:59;4.13;;;2.17;;